sensor_id;sensor_type;location;lat;lon;timestamp;temperature;humidity
62906;DHT22;49003;51.038;3.602;2022-08-04T00:02:09;19.30;99.90
62906;DHT22;49003;51.038;3.602;2022-08-04T00:04:48;19.30;99.90
62906;DHT22;49003;51.038;3.602;2022-08-04T00:10:07;19.30;99.90
62906;DHT22;49003;51.038;3.602;2022-08-04T00:12:36;19.30;99.90
62906;DHT22;49003;51.038;3.602;2022-08-04T00:15:11;19.30;99.90
62906;DHT22;49003;51.038;3.602;2022-08-04T00:17:40;19.30;99.90
62906;DHT22;49003;51.038;3.602;2022-08-04T00:20:08;19.30;99.90
62906;DHT22;49003;51.038;3.602;2022-08-04T00:22:34;19.30;99.90
62906;DHT22;49003;51.038;3.602;2022-08-04T00:25:04;19.20;99.90
62906;DHT22;49003;51.038;3.602;2022-08-04T00:27:32;19.30;99.90
62906;DHT22;49003;51.038;3.602;2022-08-04T00:29:58;19.30;99.90
62906;DHT22;49003;51.038;3.602;2022-08-04T00:32:27;19.20;99.90
62906;DHT22;49003;51.038;3.602;2022-08-04T00:34:54;19.20;99.90
62906;DHT22;49003;51.038;3.602;2022-08-04T00:37:23;19.20;99.90
62906;DHT22;49003;51.038;3.602;2022-08-04T00:39:49;19.30;99.90
62906;DHT22;49003;51.038;3.602;2022-08-04T00:50:44;19.30;99.90
62906;DHT22;49003;51.038;3.602;2022-08-04T00:53:31;19.20;99.90
62906;DHT22;49003;51.038;3.602;2022-08-04T00:56:23;19.30;99.90
62906;DHT22;49003;51.038;3.602;2022-08-04T00:59:03;19.30;99.90
62906;DHT22;49003;51.038;3.602;2022-08-04T01:17:53;19.10;99.90
62906;DHT22;49003;51.038;3.602;2022-08-04T01:20:21;19.10;99.90
62906;DHT22;49003;51.038;3.602;2022-08-04T01:28:34;18.90;99.90
62906;DHT22;49003;51.038;3.602;2022-08-04T01:31:14;18.80;99.90
62906;DHT22;49003;51.038;3.602;2022-08-04T01:33:46;18.70;99.90
62906;DHT22;49003;51.038;3.602;2022-08-04T01:36:13;18.60;99.90
62906;DHT22;49003;51.038;3.602;2022-08-04T01:38:39;18.60;99.90
62906;DHT22;49003;51.038;3.602;2022-08-04T01:41:14;18.60;99.90
62906;DHT22;49003;51.038;3.602;2022-08-04T01:43:41;18.60;99.90
62906;DHT22;49003;51.038;3.602;2022-08-04T01:46:13;18.50;99.90
62906;DHT22;49003;51.038;3.602;2022-08-04T01:48:40;18.50;99.90
62906;DHT22;49003;51.038;3.602;2022-08-04T01:51:08;18.40;99.90
62906;DHT22;49003;51.038;3.602;2022-08-04T01:53:36;18.40;99.90
62906;DHT22;49003;51.038;3.602;2022-08-04T01:56:04;18.30;99.90
62906;DHT22;49003;51.038;3.602;2022-08-04T01:58:31;18.30;99.90
62906;DHT22;49003;51.038;3.602;2022-08-04T02:01:00;18.30;99.90
62906;DHT22;49003;51.038;3.602;2022-08-04T02:03:29;18.30;99.90
62906;DHT22;49003;51.038;3.602;2022-08-04T02:11:21;18.10;99.90
62906;DHT22;49003;51.038;3.602;2022-08-04T02:16:32;18.10;99.90
62906;DHT22;49003;51.038;3.602;2022-08-04T02:19:44;18.10;99.90
62906;DHT22;49003;51.038;3.602;2022-08-04T02:22:18;18.00;99.90
62906;DHT22;49003;51.038;3.602;2022-08-04T02:24:49;18.00;99.90
62906;DHT22;49003;51.038;3.602;2022-08-04T02:27:20;17.90;99.90
62906;DHT22;49003;51.038;3.602;2022-08-04T02:29:55;17.90;99.90
62906;DHT22;49003;51.038;3.602;2022-08-04T02:32:29;17.90;99.90
62906;DHT22;49003;51.038;3.602;2022-08-04T02:35:05;17.80;99.90
62906;DHT22;49003;51.038;3.602;2022-08-04T02:37:32;17.90;99.90
62906;DHT22;49003;51.038;3.602;2022-08-04T02:40:03;17.90;99.90
62906;DHT22;49003;51.038;3.602;2022-08-04T02:42:29;17.90;99.90
62906;DHT22;49003;51.038;3.602;2022-08-04T02:44:59;17.90;99.90
62906;DHT22;49003;51.038;3.602;2022-08-04T02:47:27;17.90;99.90
62906;DHT22;49003;51.038;3.602;2022-08-04T02:49:56;17.80;99.90
62906;DHT22;49003;51.038;3.602;2022-08-04T02:52:23;17.80;99.90
62906;DHT22;49003;51.038;3.602;2022-08-04T02:54:53;17.80;99.90
62906;DHT22;49003;51.038;3.602;2022-08-04T02:57:23;17.80;99.90
62906;DHT22;49003;51.038;3.602;2022-08-04T03:00:12;17.80;99.90
62906;DHT22;49003;51.038;3.602;2022-08-04T03:03:23;17.80;99.90
62906;DHT22;49003;51.038;3.602;2022-08-04T03:12:04;17.90;99.90
62906;DHT22;49003;51.038;3.602;2022-08-04T03:14:58;17.90;99.90
62906;DHT22;49003;51.038;3.602;2022-08-04T03:40:34;17.60;99.90
62906;DHT22;49003;51.038;3.602;2022-08-04T04:05:36;17.20;99.90
62906;DHT22;49003;51.038;3.602;2022-08-04T04:16:17;17.00;99.90
62906;DHT22;49003;51.038;3.602;2022-08-04T04:19:36;17.00;99.90
62906;DHT22;49003;51.038;3.602;2022-08-04T04:24:24;17.10;99.90
62906;DHT22;49003;51.038;3.602;2022-08-04T04:33:25;17.10;99.90
62906;DHT22;49003;51.038;3.602;2022-08-04T04:36:12;17.10;99.90
62906;DHT22;49003;51.038;3.602;2022-08-04T04:44:40;17.60;99.90
62906;DHT22;49003;51.038;3.602;2022-08-04T04:47:17;17.70;99.90
62906;DHT22;49003;51.038;3.602;2022-08-04T04:49:58;17.70;99.90
62906;DHT22;49003;51.038;3.602;2022-08-04T04:55:20;17.80;99.90
62906;DHT22;49003;51.038;3.602;2022-08-04T04:57:49;17.90;99.90
62906;DHT22;49003;51.038;3.602;2022-08-04T05:00:16;18.00;99.90
62906;DHT22;49003;51.038;3.602;2022-08-04T05:05:32;18.10;99.90
62906;DHT22;49003;51.038;3.602;2022-08-04T05:13:36;18.20;99.90
62906;DHT22;49003;51.038;3.602;2022-08-04T05:16:17;18.30;99.90
62906;DHT22;49003;51.038;3.602;2022-08-04T05:18:48;18.30;99.90
62906;DHT22;49003;51.038;3.602;2022-08-04T05:21:42;18.30;99.90
62906;DHT22;49003;51.038;3.602;2022-08-04T05:24:10;18.30;99.90
62906;DHT22;49003;51.038;3.602;2022-08-04T05:26:44;18.30;99.90
62906;DHT22;49003;51.038;3.602;2022-08-04T05:29:36;18.40;99.90
62906;DHT22;49003;51.038;3.602;2022-08-04T05:32:07;18.60;99.90
62906;DHT22;49003;51.038;3.602;2022-08-04T05:34:39;18.70;99.90
62906;DHT22;49003;51.038;3.602;2022-08-04T05:37:14;18.70;99.90
62906;DHT22;49003;51.038;3.602;2022-08-04T05:40:02;18.90;99.90
62906;DHT22;49003;51.038;3.602;2022-08-04T05:42:30;19.10;99.90
62906;DHT22;49003;51.038;3.602;2022-08-04T05:44:58;19.20;99.90
62906;DHT22;49003;51.038;3.602;2022-08-04T05:47:24;19.20;99.90
62906;DHT22;49003;51.038;3.602;2022-08-04T05:49:53;19.30;99.90
62906;DHT22;49003;51.038;3.602;2022-08-04T05:52:20;19.40;99.90
62906;DHT22;49003;51.038;3.602;2022-08-04T05:54:50;19.40;99.90
62906;DHT22;49003;51.038;3.602;2022-08-04T05:57:19;19.70;99.90
62906;DHT22;49003;51.038;3.602;2022-08-04T05:59:48;19.70;99.90
62906;DHT22;49003;51.038;3.602;2022-08-04T06:02:17;19.80;99.90
62906;DHT22;49003;51.038;3.602;2022-08-04T06:04:49;20.00;99.90
62906;DHT22;49003;51.038;3.602;2022-08-04T06:07:17;20.10;99.90
62906;DHT22;49003;51.038;3.602;2022-08-04T06:09:43;20.10;99.90
62906;DHT22;49003;51.038;3.602;2022-08-04T06:12:37;20.10;99.90
62906;DHT22;49003;51.038;3.602;2022-08-04T06:15:08;20.30;99.90
62906;DHT22;49003;51.038;3.602;2022-08-04T06:17:39;20.30;99.90
62906;DHT22;49003;51.038;3.602;2022-08-04T06:20:07;20.40;99.90
62906;DHT22;49003;51.038;3.602;2022-08-04T06:22:34;20.30;99.90
62906;DHT22;49003;51.038;3.602;2022-08-04T06:25:04;20.30;99.90
62906;DHT22;49003;51.038;3.602;2022-08-04T06:27:32;20.40;99.90
62906;DHT22;49003;51.038;3.602;2022-08-04T06:30:00;20.40;99.90
62906;DHT22;49003;51.038;3.602;2022-08-04T06:32:29;20.50;99.90
62906;DHT22;49003;51.038;3.602;2022-08-04T06:35:05;20.60;99.90
62906;DHT22;49003;51.038;3.602;2022-08-04T06:37:36;20.60;99.90
62906;DHT22;49003;51.038;3.602;2022-08-04T06:40:06;20.70;99.90
62906;DHT22;49003;51.038;3.602;2022-08-04T06:42:35;20.70;99.90
62906;DHT22;49003;51.038;3.602;2022-08-04T06:45:02;20.60;99.90
62906;DHT22;49003;51.038;3.602;2022-08-04T06:47:29;20.80;99.90
62906;DHT22;49003;51.038;3.602;2022-08-04T06:50:00;20.80;99.90
62906;DHT22;49003;51.038;3.602;2022-08-04T06:52:26;20.80;99.90
62906;DHT22;49003;51.038;3.602;2022-08-04T06:54:52;20.70;99.90
62906;DHT22;49003;51.038;3.602;2022-08-04T06:57:22;20.60;99.90
62906;DHT22;49003;51.038;3.602;2022-08-04T07:00:07;20.60;99.90
62906;DHT22;49003;51.038;3.602;2022-08-04T07:02:43;20.80;99.90
62906;DHT22;49003;51.038;3.602;2022-08-04T07:05:09;21.00;99.90
62906;DHT22;49003;51.038;3.602;2022-08-04T07:07:35;21.10;99.90
62906;DHT22;49003;51.038;3.602;2022-08-04T07:10:04;21.10;99.90
62906;DHT22;49003;51.038;3.602;2022-08-04T07:12:31;21.20;99.90
62906;DHT22;49003;51.038;3.602;2022-08-04T07:14:58;21.30;99.90
62906;DHT22;49003;51.038;3.602;2022-08-04T07:17:25;21.60;99.90
62906;DHT22;49003;51.038;3.602;2022-08-04T07:19:55;21.80;99.90
62906;DHT22;49003;51.038;3.602;2022-08-04T07:22:25;22.10;99.90
62906;DHT22;49003;51.038;3.602;2022-08-04T07:24:55;22.30;99.90
62906;DHT22;49003;51.038;3.602;2022-08-04T07:27:21;22.40;99.90
62906;DHT22;49003;51.038;3.602;2022-08-04T07:29:50;22.30;99.90
62906;DHT22;49003;51.038;3.602;2022-08-04T07:32:17;22.10;99.90
62906;DHT22;49003;51.038;3.602;2022-08-04T07:34:49;22.10;99.90
62906;DHT22;49003;51.038;3.602;2022-08-04T07:37:14;22.10;99.90
62906;DHT22;49003;51.038;3.602;2022-08-04T07:39:40;22.00;99.90
62906;DHT22;49003;51.038;3.602;2022-08-04T07:42:06;21.90;99.90
62906;DHT22;49003;51.038;3.602;2022-08-04T07:44:33;21.80;99.90
62906;DHT22;49003;51.038;3.602;2022-08-04T07:47:02;21.80;99.90
62906;DHT22;49003;51.038;3.602;2022-08-04T07:49:30;21.80;99.90
62906;DHT22;49003;51.038;3.602;2022-08-04T07:51:59;21.80;99.90
62906;DHT22;49003;51.038;3.602;2022-08-04T07:54:25;21.90;99.90
62906;DHT22;49003;51.038;3.602;2022-08-04T07:56:51;22.00;99.90
62906;DHT22;49003;51.038;3.602;2022-08-04T07:59:18;22.10;99.90
62906;DHT22;49003;51.038;3.602;2022-08-04T08:01:47;22.30;99.90
62906;DHT22;49003;51.038;3.602;2022-08-04T08:04:13;22.40;99.90
62906;DHT22;49003;51.038;3.602;2022-08-04T08:06:40;22.30;99.90
62906;DHT22;49003;51.038;3.602;2022-08-04T08:09:13;22.10;99.90
62906;DHT22;49003;51.038;3.602;2022-08-04T08:11:43;22.10;99.90
62906;DHT22;49003;51.038;3.602;2022-08-04T08:14:12;21.90;99.90
62906;DHT22;49003;51.038;3.602;2022-08-04T08:16:40;21.70;99.90
62906;DHT22;49003;51.038;3.602;2022-08-04T08:19:06;21.80;99.90
62906;DHT22;49003;51.038;3.602;2022-08-04T08:21:34;21.80;99.90
62906;DHT22;49003;51.038;3.602;2022-08-04T08:24:00;21.90;99.90
62906;DHT22;49003;51.038;3.602;2022-08-04T08:26:26;21.70;99.90
62906;DHT22;49003;51.038;3.602;2022-08-04T08:28:52;21.70;99.90
62906;DHT22;49003;51.038;3.602;2022-08-04T08:31:20;21.60;99.90
62906;DHT22;49003;51.038;3.602;2022-08-04T08:33:47;21.60;99.90
62906;DHT22;49003;51.038;3.602;2022-08-04T08:36:31;21.70;99.90
62906;DHT22;49003;51.038;3.602;2022-08-04T08:39:06;21.80;99.90
62906;DHT22;49003;51.038;3.602;2022-08-04T09:02:00;23.30;99.90
62906;DHT22;49003;51.038;3.602;2022-08-04T09:10:21;23.80;99.90
62906;DHT22;49003;51.038;3.602;2022-08-04T09:19:22;23.20;99.90
62906;DHT22;49003;51.038;3.602;2022-08-04T09:22:06;23.20;99.90
62906;DHT22;49003;51.038;3.602;2022-08-04T09:27:24;22.90;99.90
62906;DHT22;49003;51.038;3.602;2022-08-04T09:30:05;23.10;99.90
62906;DHT22;49003;51.038;3.602;2022-08-04T09:37:56;23.80;99.90
62906;DHT22;49003;51.038;3.602;2022-08-04T09:40:31;23.90;99.90
62906;DHT22;49003;51.038;3.602;2022-08-04T09:57:15;24.90;99.90
62906;DHT22;49003;51.038;3.602;2022-08-04T09:59:57;25.10;99.90
62906;DHT22;49003;51.038;3.602;2022-08-04T10:02:32;25.30;99.90
62906;DHT22;49003;51.038;3.602;2022-08-04T10:05:02;25.10;99.90
62906;DHT22;49003;51.038;3.602;2022-08-04T10:11:11;25.70;99.90
62906;DHT22;49003;51.038;3.602;2022-08-04T10:13:46;26.40;99.90
62906;DHT22;49003;51.038;3.602;2022-08-04T10:18:47;25.70;99.90
62906;DHT22;49003;51.038;3.602;2022-08-04T10:24:38;26.00;99.90
62906;DHT22;49003;51.038;3.602;2022-08-04T10:27:24;26.00;99.90
62906;DHT22;49003;51.038;3.602;2022-08-04T10:30:06;26.10;99.90
62906;DHT22;49003;51.038;3.602;2022-08-04T10:35:22;26.10;99.90
62906;DHT22;49003;51.038;3.602;2022-08-04T10:46:16;26.20;99.90
62906;DHT22;49003;51.038;3.602;2022-08-04T10:49:15;26.10;99.90
62906;DHT22;49003;51.038;3.602;2022-08-04T10:57:07;26.80;99.90
62906;DHT22;49003;51.038;3.602;2022-08-04T10:59:58;27.00;99.90
62906;DHT22;49003;51.038;3.602;2022-08-04T11:05:34;26.90;99.90
62906;DHT22;49003;51.038;3.602;2022-08-04T11:08:04;26.60;99.90
62906;DHT22;49003;51.038;3.602;2022-08-04T11:10:46;26.50;99.90
62906;DHT22;49003;51.038;3.602;2022-08-04T11:13:15;26.60;99.90
62906;DHT22;49003;51.038;3.602;2022-08-04T11:15:48;26.50;99.90
62906;DHT22;49003;51.038;3.602;2022-08-04T11:21:23;27.30;99.90
62906;DHT22;49003;51.038;3.602;2022-08-04T11:24:13;27.40;99.90
62906;DHT22;49003;51.038;3.602;2022-08-04T11:26:43;27.50;99.90
62906;DHT22;49003;51.038;3.602;2022-08-04T11:32:12;27.80;99.90
62906;DHT22;49003;51.038;3.602;2022-08-04T11:34:47;27.80;99.90
62906;DHT22;49003;51.038;3.602;2022-08-04T11:37:24;27.90;99.90
62906;DHT22;49003;51.038;3.602;2022-08-04T11:40:14;27.90;99.90
62906;DHT22;49003;51.038;3.602;2022-08-04T11:42:50;28.00;99.90
62906;DHT22;49003;51.038;3.602;2022-08-04T11:45:20;27.70;99.90
62906;DHT22;49003;51.038;3.602;2022-08-04T11:47:58;27.60;99.90
62906;DHT22;49003;51.038;3.602;2022-08-04T11:50:44;27.90;99.90
62906;DHT22;49003;51.038;3.602;2022-08-04T11:53:17;28.20;99.90
62906;DHT22;49003;51.038;3.602;2022-08-04T11:55:44;28.10;99.90
62906;DHT22;49003;51.038;3.602;2022-08-04T11:58:11;28.20;99.90
62906;DHT22;49003;51.038;3.602;2022-08-04T12:00:41;28.10;99.90
62906;DHT22;49003;51.038;3.602;2022-08-04T12:17:04;27.80;99.90
62906;DHT22;49003;51.038;3.602;2022-08-04T12:19:50;27.90;99.90
62906;DHT22;49003;51.038;3.602;2022-08-04T12:22:22;28.50;99.90
62906;DHT22;49003;51.038;3.602;2022-08-04T12:27:28;28.90;98.40
62906;DHT22;49003;51.038;3.602;2022-08-04T12:29:56;28.60;98.20
62906;DHT22;49003;51.038;3.602;2022-08-04T12:32:40;28.60;97.60
62906;DHT22;49003;51.038;3.602;2022-08-04T12:40:30;29.60;97.20
62906;DHT22;49003;51.038;3.602;2022-08-04T12:43:33;29.40;96.50
62906;DHT22;49003;51.038;3.602;2022-08-04T12:46:06;29.60;98.10
62906;DHT22;49003;51.038;3.602;2022-08-04T12:48:36;29.50;95.50
62906;DHT22;49003;51.038;3.602;2022-08-04T12:51:02;29.60;95.50
62906;DHT22;49003;51.038;3.602;2022-08-04T12:53:37;29.80;95.10
62906;DHT22;49003;51.038;3.602;2022-08-04T12:56:08;29.90;95.70
62906;DHT22;49003;51.038;3.602;2022-08-04T12:58:41;30.70;96.20
62906;DHT22;49003;51.038;3.602;2022-08-04T13:04:29;32.40;93.30
62906;DHT22;49003;51.038;3.602;2022-08-04T13:06:33;32.80;90.40
62906;DHT22;49003;51.038;3.602;2022-08-04T13:09:08;33.00;90.10
62906;DHT22;49003;51.038;3.602;2022-08-04T13:11:41;32.80;89.30
62906;DHT22;49003;51.038;3.602;2022-08-04T13:14:11;31.60;90.80
62906;DHT22;49003;51.038;3.602;2022-08-04T13:16:37;30.80;90.80
62906;DHT22;49003;51.038;3.602;2022-08-04T13:19:09;30.10;92.80
62906;DHT22;49003;51.038;3.602;2022-08-04T13:21:41;29.70;94.10
62906;DHT22;49003;51.038;3.602;2022-08-04T13:24:13;29.10;95.40
62906;DHT22;49003;51.038;3.602;2022-08-04T13:29:24;28.60;97.30
62906;DHT22;49003;51.038;3.602;2022-08-04T13:31:53;28.60;97.40
62906;DHT22;49003;51.038;3.602;2022-08-04T13:34:19;28.40;98.00
62906;DHT22;49003;51.038;3.602;2022-08-04T13:36:47;28.80;98.00
62906;DHT22;49003;51.038;3.602;2022-08-04T13:39:18;29.20;97.40
62906;DHT22;49003;51.038;3.602;2022-08-04T13:41:47;29.00;97.10
62906;DHT22;49003;51.038;3.602;2022-08-04T13:44:19;29.00;97.00
62906;DHT22;49003;51.038;3.602;2022-08-04T13:46:52;29.60;97.40
62906;DHT22;49003;51.038;3.602;2022-08-04T13:49:20;30.20;94.50
62906;DHT22;49003;51.038;3.602;2022-08-04T13:51:51;29.90;95.10
62906;DHT22;49003;51.038;3.602;2022-08-04T13:54:17;29.30;95.70
62906;DHT22;49003;51.038;3.602;2022-08-04T13:56:52;28.70;96.80
62906;DHT22;49003;51.038;3.602;2022-08-04T13:59:20;28.50;96.80
62906;DHT22;49003;51.038;3.602;2022-08-04T14:01:57;28.80;97.80
62906;DHT22;49003;51.038;3.602;2022-08-04T14:04:25;29.80;96.20
62906;DHT22;49003;51.038;3.602;2022-08-04T14:07:11;30.90;94.50
62906;DHT22;49003;51.038;3.602;2022-08-04T14:09:39;30.60;94.60
62906;DHT22;49003;51.038;3.602;2022-08-04T14:12:10;30.70;94.20
62906;DHT22;49003;51.038;3.602;2022-08-04T14:14:50;30.30;93.90
62906;DHT22;49003;51.038;3.602;2022-08-04T14:17:24;30.40;94.40
62906;DHT22;49003;51.038;3.602;2022-08-04T14:19:57;30.40;93.40
62906;DHT22;49003;51.038;3.602;2022-08-04T14:27:48;32.30;90.90
62906;DHT22;49003;51.038;3.602;2022-08-04T14:30:30;30.40;92.40
62906;DHT22;49003;51.038;3.602;2022-08-04T14:33:04;29.30;94.10
62906;DHT22;49003;51.038;3.602;2022-08-04T14:35:31;28.60;95.50
62906;DHT22;49003;51.038;3.602;2022-08-04T14:38:01;28.20;96.20
62906;DHT22;49003;51.038;3.602;2022-08-04T14:40:30;27.90;97.40
62906;DHT22;49003;51.038;3.602;2022-08-04T14:42:56;27.50;98.40
62906;DHT22;49003;51.038;3.602;2022-08-04T14:45:49;27.40;99.00
62906;DHT22;49003;51.038;3.602;2022-08-04T14:48:18;27.40;99.10
62906;DHT22;49003;51.038;3.602;2022-08-04T14:50:48;27.60;99.80
62906;DHT22;49003;51.038;3.602;2022-08-04T14:53:21;28.20;96.60
62906;DHT22;49003;51.038;3.602;2022-08-04T14:55:55;28.40;95.90
62906;DHT22;49003;51.038;3.602;2022-08-04T14:58:39;28.20;96.10
62906;DHT22;49003;51.038;3.602;2022-08-04T15:01:09;27.20;97.70
62906;DHT22;49003;51.038;3.602;2022-08-04T15:03:47;26.90;99.10
62906;DHT22;49003;51.038;3.602;2022-08-04T15:06:12;26.50;99.60
62906;DHT22;49003;51.038;3.602;2022-08-04T15:08:38;26.00;99.90
62906;DHT22;49003;51.038;3.602;2022-08-04T15:11:04;25.80;99.90
62906;DHT22;49003;51.038;3.602;2022-08-04T15:13:31;25.70;99.90
62906;DHT22;49003;51.038;3.602;2022-08-04T15:15:57;26.60;99.90
62906;DHT22;49003;51.038;3.602;2022-08-04T15:18:26;28.00;96.50
62906;DHT22;49003;51.038;3.602;2022-08-04T15:20:56;29.00;94.30
62906;DHT22;49003;51.038;3.602;2022-08-04T15:23:25;29.70;92.60
62906;DHT22;49003;51.038;3.602;2022-08-04T15:25:53;30.40;92.20
62906;DHT22;49003;51.038;3.602;2022-08-04T15:28:24;30.10;91.90
62906;DHT22;49003;51.038;3.602;2022-08-04T15:30:53;30.30;91.20
62906;DHT22;49003;51.038;3.602;2022-08-04T15:33:22;29.40;91.70
62906;DHT22;49003;51.038;3.602;2022-08-04T15:38:49;26.20;97.10
62906;DHT22;49003;51.038;3.602;2022-08-04T15:41:29;26.40;97.50
62906;DHT22;49003;51.038;3.602;2022-08-04T15:49:24;29.90;92.40
62906;DHT22;49003;51.038;3.602;2022-08-04T15:52:07;30.30;91.90
62906;DHT22;49003;51.038;3.602;2022-08-04T15:54:36;30.20;91.80
62906;DHT22;49003;51.038;3.602;2022-08-04T15:57:05;30.30;91.30
62906;DHT22;49003;51.038;3.602;2022-08-04T16:00:10;30.50;91.30
62906;DHT22;49003;51.038;3.602;2022-08-04T16:02:36;30.70;91.10
62906;DHT22;49003;51.038;3.602;2022-08-04T16:07:53;30.90;90.10
62906;DHT22;49003;51.038;3.602;2022-08-04T16:12:58;30.80;90.10
62906;DHT22;49003;51.038;3.602;2022-08-04T16:18:02;30.40;90.80
62906;DHT22;49003;51.038;3.602;2022-08-04T16:20:28;30.30;90.20
62906;DHT22;49003;51.038;3.602;2022-08-04T16:22:56;30.20;90.70
62906;DHT22;49003;51.038;3.602;2022-08-04T16:25:44;29.80;90.80
62906;DHT22;49003;51.038;3.602;2022-08-04T16:31:01;29.60;91.00
62906;DHT22;49003;51.038;3.602;2022-08-04T16:33:27;29.30;91.10
62906;DHT22;49003;51.038;3.602;2022-08-04T16:35:55;29.40;91.30
62906;DHT22;49003;51.038;3.602;2022-08-04T16:38:21;29.90;90.80
62906;DHT22;49003;51.038;3.602;2022-08-04T16:41:00;29.40;90.90
62906;DHT22;49003;51.038;3.602;2022-08-04T16:43:30;28.30;92.00
62906;DHT22;49003;51.038;3.602;2022-08-04T16:46:00;28.10;92.60
62906;DHT22;49003;51.038;3.602;2022-08-04T16:48:32;27.90;92.50
62906;DHT22;49003;51.038;3.602;2022-08-04T16:51:12;27.70;92.90
62906;DHT22;49003;51.038;3.602;2022-08-04T16:53:39;28.20;92.40
62906;DHT22;49003;51.038;3.602;2022-08-04T16:56:09;28.60;91.70
62906;DHT22;49003;51.038;3.602;2022-08-04T16:58:39;28.60;91.40
62906;DHT22;49003;51.038;3.602;2022-08-04T17:01:07;28.10;92.40
62906;DHT22;49003;51.038;3.602;2022-08-04T17:03:34;28.60;91.70
62906;DHT22;49003;51.038;3.602;2022-08-04T17:06:12;28.80;91.40
62906;DHT22;49003;51.038;3.602;2022-08-04T17:08:44;28.30;91.30
62906;DHT22;49003;51.038;3.602;2022-08-04T17:11:12;27.30;92.60
62906;DHT22;49003;51.038;3.602;2022-08-04T17:13:43;26.90;93.00
62906;DHT22;49003;51.038;3.602;2022-08-04T17:16:11;26.30;94.10
62906;DHT22;49003;51.038;3.602;2022-08-04T17:18:42;26.10;94.80
62906;DHT22;49003;51.038;3.602;2022-08-04T17:21:15;25.90;95.40
62906;DHT22;49003;51.038;3.602;2022-08-04T17:23:45;25.20;96.40
62906;DHT22;49003;51.038;3.602;2022-08-04T17:26:16;24.60;98.00
62906;DHT22;49003;51.038;3.602;2022-08-04T17:28:45;24.30;98.30
62906;DHT22;49003;51.038;3.602;2022-08-04T17:31:14;23.80;99.90
62906;DHT22;49003;51.038;3.602;2022-08-04T17:33:45;23.60;99.90
62906;DHT22;49003;51.038;3.602;2022-08-04T17:36:11;23.30;99.90
62906;DHT22;49003;51.038;3.602;2022-08-04T17:38:42;23.20;99.90
62906;DHT22;49003;51.038;3.602;2022-08-04T17:41:10;23.00;99.90
62906;DHT22;49003;51.038;3.602;2022-08-04T17:43:52;22.80;99.90
62906;DHT22;49003;51.038;3.602;2022-08-04T17:46:19;22.70;99.90
62906;DHT22;49003;51.038;3.602;2022-08-04T17:49:38;22.60;99.90
62906;DHT22;49003;51.038;3.602;2022-08-04T17:51:48;22.40;99.90
62906;DHT22;49003;51.038;3.602;2022-08-04T17:54:20;22.50;99.90
62906;DHT22;49003;51.038;3.602;2022-08-04T17:56:48;22.50;99.90
62906;DHT22;49003;51.038;3.602;2022-08-04T17:59:27;22.40;99.90
62906;DHT22;49003;51.038;3.602;2022-08-04T18:02:00;22.40;99.90
62906;DHT22;49003;51.038;3.602;2022-08-04T18:04:48;22.30;99.90
62906;DHT22;49003;51.038;3.602;2022-08-04T18:07:39;22.20;99.90
62906;DHT22;49003;51.038;3.602;2022-08-04T18:10:07;22.10;99.90
62906;DHT22;49003;51.038;3.602;2022-08-04T18:12:34;22.10;99.90
62906;DHT22;49003;51.038;3.602;2022-08-04T18:15:06;22.10;99.90
62906;DHT22;49003;51.038;3.602;2022-08-04T18:17:43;22.30;99.90
62906;DHT22;49003;51.038;3.602;2022-08-04T18:20:13;22.30;99.90
62906;DHT22;49003;51.038;3.602;2022-08-04T18:22:40;22.30;99.90
62906;DHT22;49003;51.038;3.602;2022-08-04T18:25:13;22.20;99.90
62906;DHT22;49003;51.038;3.602;2022-08-04T18:30:12;22.20;99.90
62906;DHT22;49003;51.038;3.602;2022-08-04T18:32:40;22.20;99.90
62906;DHT22;49003;51.038;3.602;2022-08-04T18:35:06;22.10;99.90
62906;DHT22;49003;51.038;3.602;2022-08-04T18:37:36;21.90;99.90
62906;DHT22;49003;51.038;3.602;2022-08-04T18:40:04;21.80;99.90
62906;DHT22;49003;51.038;3.602;2022-08-04T18:42:30;21.80;99.90
62906;DHT22;49003;51.038;3.602;2022-08-04T18:44:56;21.80;99.90
62906;DHT22;49003;51.038;3.602;2022-08-04T18:47:21;21.90;99.90
62906;DHT22;49003;51.038;3.602;2022-08-04T18:49:53;21.90;99.90
62906;DHT22;49003;51.038;3.602;2022-08-04T18:52:21;21.90;99.90
62906;DHT22;49003;51.038;3.602;2022-08-04T18:54:47;21.90;99.90
62906;DHT22;49003;51.038;3.602;2022-08-04T18:57:25;21.90;99.90
62906;DHT22;49003;51.038;3.602;2022-08-04T18:59:53;21.60;99.90
62906;DHT22;49003;51.038;3.602;2022-08-04T19:02:21;21.70;99.90
62906;DHT22;49003;51.038;3.602;2022-08-04T19:04:50;21.60;99.90
62906;DHT22;49003;51.038;3.602;2022-08-04T19:07:16;21.50;99.90
62906;DHT22;49003;51.038;3.602;2022-08-04T19:09:44;21.50;99.90
62906;DHT22;49003;51.038;3.602;2022-08-04T19:12:12;21.50;99.90
62906;DHT22;49003;51.038;3.602;2022-08-04T19:14:37;21.50;99.90
62906;DHT22;49003;51.038;3.602;2022-08-04T19:17:03;21.40;99.90
62906;DHT22;49003;51.038;3.602;2022-08-04T19:19:29;21.30;99.90
62906;DHT22;49003;51.038;3.602;2022-08-04T19:21:55;21.30;99.90
62906;DHT22;49003;51.038;3.602;2022-08-04T19:24:21;21.20;99.90
62906;DHT22;49003;51.038;3.602;2022-08-04T19:26:47;21.10;99.90
62906;DHT22;49003;51.038;3.602;2022-08-04T19:29:12;21.10;99.90
62906;DHT22;49003;51.038;3.602;2022-08-04T19:31:39;21.20;99.90
62906;DHT22;49003;51.038;3.602;2022-08-04T19:34:05;21.20;99.90
62906;DHT22;49003;51.038;3.602;2022-08-04T19:36:36;21.20;99.90
62906;DHT22;49003;51.038;3.602;2022-08-04T19:39:06;21.20;99.90
62906;DHT22;49003;51.038;3.602;2022-08-04T19:41:32;21.20;99.90
62906;DHT22;49003;51.038;3.602;2022-08-04T19:44:05;21.20;99.90
62906;DHT22;49003;51.038;3.602;2022-08-04T19:46:33;21.10;99.90
62906;DHT22;49003;51.038;3.602;2022-08-04T19:48:59;21.10;99.90
62906;DHT22;49003;51.038;3.602;2022-08-04T19:51:24;21.20;99.90
62906;DHT22;49003;51.038;3.602;2022-08-04T19:53:51;21.20;99.90
62906;DHT22;49003;51.038;3.602;2022-08-04T19:56:19;21.20;99.90
62906;DHT22;49003;51.038;3.602;2022-08-04T19:58:47;21.20;99.90
62906;DHT22;49003;51.038;3.602;2022-08-04T20:01:12;21.20;99.90
62906;DHT22;49003;51.038;3.602;2022-08-04T20:03:38;21.30;99.90
62906;DHT22;49003;51.038;3.602;2022-08-04T20:06:04;21.20;99.90
62906;DHT22;49003;51.038;3.602;2022-08-04T20:08:29;21.30;99.90
62906;DHT22;49003;51.038;3.602;2022-08-04T20:10:56;21.30;99.90
62906;DHT22;49003;51.038;3.602;2022-08-04T20:13:22;21.30;99.90
62906;DHT22;49003;51.038;3.602;2022-08-04T20:15:51;21.20;99.90
62906;DHT22;49003;51.038;3.602;2022-08-04T20:18:18;21.20;99.90
62906;DHT22;49003;51.038;3.602;2022-08-04T20:20:46;21.10;99.90
62906;DHT22;49003;51.038;3.602;2022-08-04T20:23:12;21.20;99.90
62906;DHT22;49003;51.038;3.602;2022-08-04T20:25:37;21.10;99.90
62906;DHT22;49003;51.038;3.602;2022-08-04T20:28:04;21.00;99.90
62906;DHT22;49003;51.038;3.602;2022-08-04T20:30:30;20.90;99.90